sensor_id;sensor_type;location;lat;lon;timestamp;pressure;altitude;pressure_sealevel;temperature;humidity
26563;BME280;14217;50.986;5.826;2023-09-07T00:03:18;101279.81;;;27.33;44.33
26563;BME280;14217;50.986;5.826;2023-09-07T00:08:20;101263.69;;;27.33;44.36
26563;BME280;14217;50.986;5.826;2023-09-07T00:13:22;101269.34;;;27.42;44.13
26563;BME280;14217;50.986;5.826;2023-09-07T00:18:24;101258.94;;;27.37;44.33
26563;BME280;14217;50.986;5.826;2023-09-07T00:23:26;101263.56;;;27.35;44.21
26563;BME280;14217;50.986;5.826;2023-09-07T00:28:28;101258.81;;;27.38;44.26
26563;BME280;14217;50.986;5.826;2023-09-07T00:33:31;101262.38;;;27.39;44.17
26563;BME280;14217;50.986;5.826;2023-09-07T00:38:33;101263.34;;;27.38;44.15
26563;BME280;14217;50.986;5.826;2023-09-07T00:43:35;101257.09;;;27.37;44.27
26563;BME280;14217;50.986;5.826;2023-09-07T00:48:38;101260.63;;;27.38;44.26
26563;BME280;14217;50.986;5.826;2023-09-07T00:53:40;101253.41;;;27.38;44.18
26563;BME280;14217;50.986;5.826;2023-09-07T00:58:43;101252.47;;;27.40;43.87
26563;BME280;14217;50.986;5.826;2023-09-07T01:03:45;101256.75;;;27.42;44.17
26563;BME280;14217;50.986;5.826;2023-09-07T01:08:51;101246.09;;;27.41;44.05
26563;BME280;14217;50.986;5.826;2023-09-07T01:13:58;101236.31;;;27.40;44.03
26563;BME280;14217;50.986;5.826;2023-09-07T01:19:01;101244.38;;;27.40;44.08
26563;BME280;14217;50.986;5.826;2023-09-07T01:24:08;101239.00;;;27.40;43.92
26563;BME280;14217;50.986;5.826;2023-09-07T01:29:11;101236.31;;;27.40;43.96
26563;BME280;14217;50.986;5.826;2023-09-07T01:34:13;101239.75;;;27.42;44.30
26563;BME280;14217;50.986;5.826;2023-09-07T01:39:15;101229.44;;;27.35;44.14
26563;BME280;14217;50.986;5.826;2023-09-07T01:44:19;101233.72;;;27.38;44.07
26563;BME280;14217;50.986;5.826;2023-09-07T01:49:21;101232.88;;;27.37;44.05
26563;BME280;14217;50.986;5.826;2023-09-07T01:54:23;101239.25;;;27.36;44.18
26563;BME280;14217;50.986;5.826;2023-09-07T01:59:25;101239.34;;;27.35;44.00
26563;BME280;14217;50.986;5.826;2023-09-07T02:04:27;101239.34;;;27.35;44.27
26563;BME280;14217;50.986;5.826;2023-09-07T02:09:30;101232.97;;;27.36;43.91
26563;BME280;14217;50.986;5.826;2023-09-07T02:14:32;101232.88;;;27.37;43.96
26563;BME280;14217;50.986;5.826;2023-09-07T02:19:34;101231.19;;;27.36;44.00
26563;BME280;14217;50.986;5.826;2023-09-07T02:24:37;101232.88;;;27.37;44.03
26563;BME280;14217;50.986;5.826;2023-09-07T02:29:39;101227.38;;;27.39;43.78
26563;BME280;14217;50.986;5.826;2023-09-07T02:34:41;101233.88;;;27.36;43.96
26563;BME280;14217;50.986;5.826;2023-09-07T02:39:44;101235.56;;;27.37;43.68
26563;BME280;14217;50.986;5.826;2023-09-07T02:44:46;101231.03;;;27.38;43.85
26563;BME280;14217;50.986;5.826;2023-09-07T02:49:48;101229.19;;;27.38;43.79
26563;BME280;14217;50.986;5.826;2023-09-07T02:54:50;101217.59;;;27.38;43.80
26563;BME280;14217;50.986;5.826;2023-09-07T02:59:53;101219.53;;;27.36;43.78
26563;BME280;14217;50.986;5.826;2023-09-07T03:04:55;101215.88;;;27.37;43.68
26563;BME280;14217;50.986;5.826;2023-09-07T03:10:00;101217.72;;;27.36;43.58
26563;BME280;14217;50.986;5.826;2023-09-07T03:15:04;101213.31;;;27.35;43.55
26563;BME280;14217;50.986;5.826;2023-09-07T03:20:06;101213.06;;;27.38;43.62
26563;BME280;14217;50.986;5.826;2023-09-07T03:25:15;101217.84;;;27.35;43.81
26563;BME280;14217;50.986;5.826;2023-09-07T03:30:17;101208.66;;;27.37;43.66
26563;BME280;14217;50.986;5.826;2023-09-07T03:35:20;101210.50;;;27.37;43.74
26563;BME280;14217;50.986;5.826;2023-09-07T03:40:22;101223.22;;;27.35;43.70
26563;BME280;14217;50.986;5.826;2023-09-07T03:45:24;101211.59;;;27.34;43.46
26563;BME280;14217;50.986;5.826;2023-09-07T03:50:26;101226.88;;;27.34;43.73
26563;BME280;14217;50.986;5.826;2023-09-07T03:55:28;101228.34;;;27.38;43.51
26563;BME280;14217;50.986;5.826;2023-09-07T04:00:30;101227.59;;;27.36;43.60
26563;BME280;14217;50.986;5.826;2023-09-07T04:05:32;101231.41;;;27.33;43.49
26563;BME280;14217;50.986;5.826;2023-09-07T04:10:37;101226.00;;;27.33;43.66
26563;BME280;14217;50.986;5.826;2023-09-07T04:15:43;101218.69;;;27.35;43.49
26563;BME280;14217;50.986;5.826;2023-09-07T04:20:46;101214.28;;;27.34;43.32
26563;BME280;14217;50.986;5.826;2023-09-07T04:25:48;101214.16;;;27.36;43.39
26563;BME280;14217;50.986;5.826;2023-09-07T04:30:50;101220.41;;;27.36;43.42
26563;BME280;14217;50.986;5.826;2023-09-07T04:35:52;101226.66;;;27.37;43.43
26563;BME280;14217;50.986;5.826;2023-09-07T04:40:54;101216.97;;;27.34;43.45
26563;BME280;14217;50.986;5.826;2023-09-07T04:45:56;101219.44;;;27.37;43.36
26563;BME280;14217;50.986;5.826;2023-09-07T04:51:02;101224.16;;;27.34;43.24
26563;BME280;14217;50.986;5.826;2023-09-07T04:56:06;101225.78;;;27.36;43.06
26563;BME280;14217;50.986;5.826;2023-09-07T05:01:11;101222.13;;;27.37;43.19
26563;BME280;14217;50.986;5.826;2023-09-07T05:06:13;101227.50;;;27.37;43.17
26563;BME280;14217;50.986;5.826;2023-09-07T05:11:15;101227.38;;;27.39;43.12
26563;BME280;14217;50.986;5.826;2023-09-07T05:16:18;101226.28;;;27.42;43.08
26563;BME280;14217;50.986;5.826;2023-09-07T05:21:20;101236.56;;;27.36;43.58
26563;BME280;14217;50.986;5.826;2023-09-07T05:26:22;101243.53;;;27.39;43.81
26563;BME280;14217;50.986;5.826;2023-09-07T05:31:28;101247.53;;;27.33;43.48
26563;BME280;14217;50.986;5.826;2023-09-07T05:36:30;101250.00;;;27.36;43.34
26563;BME280;14217;50.986;5.826;2023-09-07T05:41:32;101259.03;;;27.35;43.42
26563;BME280;14217;50.986;5.826;2023-09-07T05:46:34;101254.88;;;27.31;43.43
26563;BME280;14217;50.986;5.826;2023-09-07T05:51:37;101254.88;;;27.31;43.47
26563;BME280;14217;50.986;5.826;2023-09-07T05:56:39;101254.03;;;27.31;43.28
26563;BME280;14217;50.986;5.826;2023-09-07T06:01:41;101252.91;;;27.33;43.25
26563;BME280;14217;50.986;5.826;2023-09-07T06:06:43;101259.16;;;27.34;43.38
26563;BME280;14217;50.986;5.826;2023-09-07T06:11:45;101264.53;;;27.34;43.50
26563;BME280;14217;50.986;5.826;2023-09-07T06:16:47;101267.50;;;27.42;43.29
26563;BME280;14217;50.986;5.826;2023-09-07T06:21:49;101272.66;;;27.45;43.22
26563;BME280;14217;50.986;5.826;2023-09-07T06:26:51;101276.59;;;27.52;43.21
26563;BME280;14217;50.986;5.826;2023-09-07T06:31:53;101286.28;;;27.55;43.26
26563;BME280;14217;50.986;5.826;2023-09-07T06:36:55;101281.50;;;27.47;43.02
26563;BME280;14217;50.986;5.826;2023-09-07T06:41:57;101290.53;;;27.46;42.61
26563;BME280;14217;50.986;5.826;2023-09-07T06:47:00;101288.97;;;27.55;42.53
26563;BME280;14217;50.986;5.826;2023-09-07T06:52:02;101294.88;;;27.60;42.87
26563;BME280;14217;50.986;5.826;2023-09-07T06:57:06;101295.38;;;27.65;43.01
26563;BME280;14217;50.986;5.826;2023-09-07T07:02:09;101293.78;;;27.63;43.40
26563;BME280;14217;50.986;5.826;2023-09-07T07:07:12;101295.75;;;27.72;43.63
26563;BME280;14217;50.986;5.826;2023-09-07T07:12:14;101299.31;;;27.72;43.97
26563;BME280;14217;50.986;5.826;2023-09-07T07:17:16;101302.59;;;27.65;43.98
26563;BME280;14217;50.986;5.826;2023-09-07T07:22:18;101303.97;;;27.70;43.84
26563;BME280;14217;50.986;5.826;2023-09-07T07:27:22;101308.47;;;27.70;44.02
26563;BME280;14217;50.986;5.826;2023-09-07T07:32:24;101306.38;;;27.62;44.24
26563;BME280;14217;50.986;5.826;2023-09-07T07:37:26;101309.91;;;27.63;43.94
26563;BME280;14217;50.986;5.826;2023-09-07T07:42:28;101312.72;;;27.61;43.74
26563;BME280;14217;50.986;5.826;2023-09-07T07:47:30;101316.25;;;27.62;43.54
26563;BME280;14217;50.986;5.826;2023-09-07T07:52:33;101316.41;;;27.60;43.55
26563;BME280;14217;50.986;5.826;2023-09-07T07:57:35;101305.28;;;27.65;43.60
26563;BME280;14217;50.986;5.826;2023-09-07T08:02:37;101307.63;;;27.69;43.81
26563;BME280;14217;50.986;5.826;2023-09-07T08:07:39;101297.94;;;27.67;44.06
26563;BME280;14217;50.986;5.826;2023-09-07T08:12:41;101297.84;;;27.68;44.14
26563;BME280;14217;50.986;5.826;2023-09-07T08:17:43;101301.00;;;27.62;44.30
26563;BME280;14217;50.986;5.826;2023-09-07T08:22:46;101293.78;;;27.63;44.32
26563;BME280;14217;50.986;5.826;2023-09-07T08:27:48;101290.81;;;27.66;44.37
26563;BME280;14217;50.986;5.826;2023-09-07T08:32:51;101297.41;;;27.62;44.46
26563;BME280;14217;50.986;5.826;2023-09-07T08:37:54;101285.81;;;27.61;44.37
26563;BME280;14217;50.986;5.826;2023-09-07T08:42:56;101287.41;;;27.64;44.42
26563;BME280;14217;50.986;5.826;2023-09-07T08:47:59;101284.59;;;27.65;44.42
26563;BME280;14217;50.986;5.826;2023-09-07T08:53:01;101286.44;;;27.65;44.30
26563;BME280;14217;50.986;5.826;2023-09-07T08:58:05;101273.81;;;27.65;44.59
26563;BME280;14217;50.986;5.826;2023-09-07T09:03:07;101273.72;;;27.67;44.46
26563;BME280;14217;50.986;5.826;2023-09-07T09:08:09;101267.47;;;27.66;44.41
26563;BME280;14217;50.986;5.826;2023-09-07T09:13:12;101272.72;;;27.68;44.62
26563;BME280;14217;50.986;5.826;2023-09-07T09:18:15;101266.38;;;27.69;44.60
26563;BME280;14217;50.986;5.826;2023-09-07T09:23:17;101258.53;;;27.66;44.74
26563;BME280;14217;50.986;5.826;2023-09-07T09:28:19;101252.28;;;27.65;44.83
26563;BME280;14217;50.986;5.826;2023-09-07T09:33:22;101256.56;;;27.68;44.68
26563;BME280;14217;50.986;5.826;2023-09-07T09:38:25;101260.88;;;27.70;44.86
26563;BME280;14217;50.986;5.826;2023-09-07T09:43:28;101248.38;;;27.69;44.82
26563;BME280;14217;50.986;5.826;2023-09-07T09:48:31;101253.66;;;27.71;44.85
26563;BME280;14217;50.986;5.826;2023-09-07T09:53:34;101238.34;;;27.71;44.82
26563;BME280;14217;50.986;5.826;2023-09-07T09:58:37;101237.50;;;27.71;44.88
26563;BME280;14217;50.986;5.826;2023-09-07T10:03:47;101235.19;;;27.66;45.01
26563;BME280;14217;50.986;5.826;2023-09-07T10:09:02;101225.16;;;27.68;45.08
26563;BME280;14217;50.986;5.826;2023-09-07T10:14:09;101219.63;;;27.70;45.22
26563;BME280;14217;50.986;5.826;2023-09-07T10:19:20;101217.81;;;27.70;45.25
26563;BME280;14217;50.986;5.826;2023-09-07T10:24:35;101215.84;;;27.72;45.31
26563;BME280;14217;50.986;5.826;2023-09-07T10:29:46;101219.16;;;27.76;45.84
26563;BME280;14217;50.986;5.826;2023-09-07T10:34:51;101212.91;;;27.75;45.56
26563;BME280;14217;50.986;5.826;2023-09-07T10:39:53;101200.06;;;27.79;45.39
26563;BME280;14217;50.986;5.826;2023-09-07T10:45:08;101198.97;;;27.70;45.85
26563;BME280;14217;50.986;5.826;2023-09-07T10:50:14;101194.19;;;27.74;45.78
26563;BME280;14217;50.986;5.826;2023-09-07T10:55:16;101197.00;;;27.72;45.91
26563;BME280;14217;50.986;5.826;2023-09-07T11:00:18;101193.94;;;27.77;45.63
26563;BME280;14217;50.986;5.826;2023-09-07T11:05:20;101190.38;;;27.76;45.93
26563;BME280;14217;50.986;5.826;2023-09-07T11:10:23;101189.91;;;27.71;46.09
26563;BME280;14217;50.986;5.826;2023-09-07T11:15:25;101184.78;;;27.80;45.72
26563;BME280;14217;50.986;5.826;2023-09-07T11:20:27;101175.09;;;27.77;45.90
26563;BME280;14217;50.986;5.826;2023-09-07T11:25:39;101189.41;;;27.77;46.03
26563;BME280;14217;50.986;5.826;2023-09-07T11:30:51;101183.03;;;27.78;46.23
26563;BME280;14217;50.986;5.826;2023-09-07T11:35:54;101178.66;;;27.77;46.17
26563;BME280;14217;50.986;5.826;2023-09-07T11:40:56;101168.72;;;27.78;46.20
26563;BME280;14217;50.986;5.826;2023-09-07T11:45:58;101171.53;;;27.76;46.09
26563;BME280;14217;50.986;5.826;2023-09-07T11:51:00;101163.22;;;27.80;46.23
26563;BME280;14217;50.986;5.826;2023-09-07T11:56:03;101148.78;;;27.81;46.20
26563;BME280;14217;50.986;5.826;2023-09-07T12:01:05;101141.13;;;27.87;46.13
26563;BME280;14217;50.986;5.826;2023-09-07T12:06:08;101140.75;;;27.92;46.72
26563;BME280;14217;50.986;5.826;2023-09-07T12:11:11;101148.53;;;27.84;46.94
26563;BME280;14217;50.986;5.826;2023-09-07T12:16:13;101152.94;;;27.85;47.10
26563;BME280;14217;50.986;5.826;2023-09-07T12:21:15;101140.56;;;27.82;47.28
26563;BME280;14217;50.986;5.826;2023-09-07T12:26:18;101137.88;;;27.82;47.87
26563;BME280;14217;50.986;5.826;2023-09-07T12:31:23;101127.22;;;27.81;47.83
26563;BME280;14217;50.986;5.826;2023-09-07T12:36:25;101122.56;;;27.83;47.50
26563;BME280;14217;50.986;5.826;2023-09-07T12:41:30;101123.47;;;27.83;47.40
26563;BME280;14217;50.986;5.826;2023-09-07T12:46:35;101119.41;;;27.77;47.41
26563;BME280;14217;50.986;5.826;2023-09-07T12:51:39;101103.72;;;27.83;47.09
26563;BME280;14217;50.986;5.826;2023-09-07T12:56:41;101100.06;;;27.84;47.00
26563;BME280;14217;50.986;5.826;2023-09-07T13:01:43;101097.50;;;27.82;47.07
26563;BME280;14217;50.986;5.826;2023-09-07T13:06:45;101093.09;;;27.81;47.01
26563;BME280;14217;50.986;5.826;2023-09-07T13:11:47;101086.72;;;27.82;46.78
26563;BME280;14217;50.986;5.826;2023-09-07T13:16:49;101084.56;;;27.87;46.81
26563;BME280;14217;50.986;5.826;2023-09-07T13:21:55;101078.53;;;27.84;46.67
26563;BME280;14217;50.986;5.826;2023-09-07T13:26:57;101079.19;;;27.87;46.67
26563;BME280;14217;50.986;5.826;2023-09-07T13:31:59;101071.22;;;27.86;46.82
26563;BME280;14217;50.986;5.826;2023-09-07T13:37:01;101068.41;;;27.87;46.60
26563;BME280;14217;50.986;5.826;2023-09-07T13:42:04;101070.34;;;27.85;46.46
26563;BME280;14217;50.986;5.826;2023-09-07T13:47:06;101068.41;;;27.87;46.46
26563;BME280;14217;50.986;5.826;2023-09-07T13:52:09;101064.22;;;27.83;46.47
26563;BME280;14217;50.986;5.826;2023-09-07T13:57:11;101060.44;;;27.86;46.32
26563;BME280;14217;50.986;5.826;2023-09-07T14:02:13;101062.25;;;27.85;46.44
26563;BME280;14217;50.986;5.826;2023-09-07T14:07:15;101058.69;;;27.85;46.34
26563;BME280;14217;50.986;5.826;2023-09-07T14:12:17;101060.44;;;27.86;46.52
26563;BME280;14217;50.986;5.826;2023-09-07T14:17:19;101053.00;;;27.89;46.42
26563;BME280;14217;50.986;5.826;2023-09-07T14:22:21;101055.06;;;27.86;46.24
26563;BME280;14217;50.986;5.826;2023-09-07T14:27:23;101056.88;;;27.85;46.21
26563;BME280;14217;50.986;5.826;2023-09-07T14:32:27;101067.31;;;27.90;46.18
26563;BME280;14217;50.986;5.826;2023-09-07T14:37:29;101055.69;;;27.89;46.26
26563;BME280;14217;50.986;5.826;2023-09-07T14:42:31;101056.53;;;27.90;46.26
26563;BME280;14217;50.986;5.826;2023-09-07T14:47:33;101054.69;;;27.90;46.03
26563;BME280;14217;50.986;5.826;2023-09-07T14:52:35;101051.16;;;27.90;46.15
26563;BME280;14217;50.986;5.826;2023-09-07T14:57:42;101055.41;;;27.92;46.18
26563;BME280;14217;50.986;5.826;2023-09-07T15:02:44;101045.50;;;27.93;46.16
26563;BME280;14217;50.986;5.826;2023-09-07T15:07:47;101049.19;;;27.92;46.27
26563;BME280;14217;50.986;5.826;2023-09-07T15:12:49;101043.53;;;27.95;46.11
26563;BME280;14217;50.986;5.826;2023-09-07T15:17:51;101047.44;;;27.91;46.05
26563;BME280;14217;50.986;5.826;2023-09-07T15:22:53;101040.97;;;27.93;46.03
26563;BME280;14217;50.986;5.826;2023-09-07T15:27:55;101040.25;;;27.91;45.96
26563;BME280;14217;50.986;5.826;2023-09-07T15:32:57;101037.28;;;27.94;46.06
26563;BME280;14217;50.986;5.826;2023-09-07T15:37:59;101046.50;;;27.92;45.91
26563;BME280;14217;50.986;5.826;2023-09-07T15:43:02;101039.16;;;27.94;45.97
26563;BME280;14217;50.986;5.826;2023-09-07T15:48:04;101026.78;;;27.91;45.94
26563;BME280;14217;50.986;5.826;2023-09-07T15:53:07;101029.59;;;27.90;45.97
26563;BME280;14217;50.986;5.826;2023-09-07T15:58:10;101030.22;;;27.93;45.97
26563;BME280;14217;50.986;5.826;2023-09-07T16:03:12;101027.38;;;27.95;45.82
26563;BME280;14217;50.986;5.826;2023-09-07T16:08:14;101030.34;;;27.92;45.74
26563;BME280;14217;50.986;5.826;2023-09-07T16:13:16;101031.06;;;27.94;45.80
26563;BME280;14217;50.986;5.826;2023-09-07T16:18:18;101027.63;;;27.92;45.96
26563;BME280;14217;50.986;5.826;2023-09-07T16:23:21;101034.72;;;27.93;45.63
26563;BME280;14217;50.986;5.826;2023-09-07T16:28:25;101022.72;;;27.97;45.78
26563;BME280;14217;50.986;5.826;2023-09-07T16:33:27;101015.88;;;27.93;46.11
26563;BME280;14217;50.986;5.826;2023-09-07T16:38:29;101014.91;;;27.94;45.54
26563;BME280;14217;50.986;5.826;2023-09-07T16:43:32;101015.63;;;27.96;45.58
26563;BME280;14217;50.986;5.826;2023-09-07T16:48:34;101021.88;;;27.96;45.58
26563;BME280;14217;50.986;5.826;2023-09-07T16:53:37;101023.44;;;27.99;45.56
26563;BME280;14217;50.986;5.826;2023-09-07T16:58:41;101026.53;;;27.83;45.93
26563;BME280;14217;50.986;5.826;2023-09-07T17:04:03;101032.13;;;28.03;45.30
26563;BME280;14217;50.986;5.826;2023-09-07T17:09:06;101026.13;;;27.99;45.27
26563;BME280;14217;50.986;5.826;2023-09-07T17:14:08;101030.41;;;28.02;45.18
26563;BME280;14217;50.986;5.826;2023-09-07T17:19:11;101028.84;;;27.99;45.16
26563;BME280;14217;50.986;5.826;2023-09-07T17:24:13;101021.59;;;28.00;44.98
26563;BME280;14217;50.986;5.826;2023-09-07T17:29:15;101030.69;;;27.98;44.71
26563;BME280;14217;50.986;5.826;2023-09-07T17:34:17;101028.94;;;27.97;44.87
26563;BME280;14217;50.986;5.826;2023-09-07T17:39:19;101027.72;;;28.02;44.89
26563;BME280;14217;50.986;5.826;2023-09-07T17:44:21;101025.91;;;28.02;44.73
26563;BME280;14217;50.986;5.826;2023-09-07T17:49:23;101028.84;;;27.99;44.90
26563;BME280;14217;50.986;5.826;2023-09-07T17:54:25;101023.56;;;27.97;44.92
26563;BME280;14217;50.986;5.826;2023-09-07T17:59:28;101021.59;;;28.00;44.75
26563;BME280;14217;50.986;5.826;2023-09-07T18:04:30;101033.25;;;28.00;44.83
26563;BME280;14217;50.986;5.826;2023-09-07T18:09:32;101033.09;;;28.02;44.95
26563;BME280;14217;50.986;5.826;2023-09-07T18:14:34;101038.25;;;28.05;44.93
26563;BME280;14217;50.986;5.826;2023-09-07T18:19:36;101049.88;;;28.05;44.79
26563;BME280;14217;50.986;5.826;2023-09-07T18:24:41;101053.56;;;28.04;44.95
26563;BME280;14217;50.986;5.826;2023-09-07T18:29:43;101046.22;;;28.06;44.96
26563;BME280;14217;50.986;5.826;2023-09-07T18:34:45;101048.19;;;28.04;44.89
26563;BME280;14217;50.986;5.826;2023-09-07T18:39:47;101060.66;;;28.05;45.05
26563;BME280;14217;50.986;5.826;2023-09-07T18:44:53;101057.13;;;28.05;45.21
26563;BME280;14217;50.986;5.826;2023-09-07T18:49:55;101055.03;;;28.08;44.68
26563;BME280;14217;50.986;5.826;2023-09-07T18:54:57;101055.03;;;28.08;44.75
26563;BME280;14217;50.986;5.826;2023-09-07T18:59:59;101061.28;;;28.09;45.00
26563;BME280;14217;50.986;5.826;2023-09-07T19:05:01;101065.94;;;28.07;45.21
26563;BME280;14217;50.986;5.826;2023-09-07T19:10:03;101067.38;;;28.00;45.29
26563;BME280;14217;50.986;5.826;2023-09-07T19:15:06;101064.69;;;28.00;45.49
26563;BME280;14217;50.986;5.826;2023-09-07T19:20:08;101065.06;;;27.95;45.64
26563;BME280;14217;50.986;5.826;2023-09-07T19:25:10;101081.97;;;27.97;45.57
26563;BME280;14217;50.986;5.826;2023-09-07T19:30:13;101083.44;;;28.01;45.22
26563;BME280;14217;50.986;5.826;2023-09-07T19:35:15;101073.38;;;28.03;45.19
26563;BME280;14217;50.986;5.826;2023-09-07T19:40:17;101080.00;;;27.99;45.39
26563;BME280;14217;50.986;5.826;2023-09-07T19:45:19;101081.00;;;27.98;45.42
26563;BME280;14217;50.986;5.826;2023-09-07T19:50:21;101086.63;;;27.95;45.33
26563;BME280;14217;50.986;5.826;2023-09-07T19:55:23;101085.78;;;27.94;45.62
26563;BME280;14217;50.986;5.826;2023-09-07T20:00:25;101083.81;;;27.96;45.51
26563;BME280;14217;50.986;5.826;2023-09-07T20:05:27;101092.38;;;28.02;45.21
26563;BME280;14217;50.986;5.826;2023-09-07T20:10:29;101092.13;;;28.05;45.38
26563;BME280;14217;50.986;5.826;2023-09-07T20:15:31;101099.38;;;28.04;45.28
26563;BME280;14217;50.986;5.826;2023-09-07T20:20:34;101100.31;;;28.03;45.32
26563;BME280;14217;50.986;5.826;2023-09-07T20:25:37;101100.59;;;28.00;45.35
26563;BME280;14217;50.986;5.826;2023-09-07T20:30:39;101109.13;;;28.05;45.20
26563;BME280;14217;50.986;5.826;2023-09-07T20:35:41;101102.06;;;28.04;44.74
26563;BME280;14217;50.986;5.826;2023-09-07T20:40:44;101105.09;;;28.00;44.81
26563;BME280;14217;50.986;5.826;2023-09-07T20:45:46;101100.22;;;28.05;44.40
26563;BME280;14217;50.986;5.826;2023-09-07T20:50:49;101101.78;;;28.07;44.26
26563;BME280;14217;50.986;5.826;2023-09-07T20:55:52;101094.72;;;28.06;44.54
26563;BME280;14217;50.986;5.826;2023-09-07T21:00:54;101093.81;;;28.06;44.28
26563;BME280;14217;50.986;5.826;2023-09-07T21:05:57;101098.63;;;28.02;44.16
26563;BME280;14217;50.986;5.826;2023-09-07T21:10:59;101095.78;;;28.04;44.14
26563;BME280;14217;50.986;5.826;2023-09-07T21:16:01;101101.91;;;28.06;43.90
26563;BME280;14217;50.986;5.826;2023-09-07T21:21:03;101101.06;;;28.05;44.15
26563;BME280;14217;50.986;5.826;2023-09-07T21:26:05;101108.66;;;28.00;43.85
26563;BME280;14217;50.986;5.826;2023-09-07T21:31:07;101109.41;;;28.02;44.03
26563;BME280;14217;50.986;5.826;2023-09-07T21:36:09;101106.09;;;27.98;44.27
26563;BME280;14217;50.986;5.826;2023-09-07T21:41:14;101106.81;;;28.01;44.31
26563;BME280;14217;50.986;5.826;2023-09-07T21:46:17;101109.41;;;28.02;44.26
26563;BME280;14217;50.986;5.826;2023-09-07T21:51:19;101100.34;;;27.92;44.66
26563;BME280;14217;50.986;5.826;2023-09-07T21:56:22;101096.94;;;27.90;44.92
26563;BME280;14217;50.986;5.826;2023-09-07T22:01:24;101099.34;;;27.93;44.87
26563;BME280;14217;50.986;5.826;2023-09-07T22:06:26;101097.66;;;27.92;44.84
26563;BME280;14217;50.986;5.826;2023-09-07T22:11:29;101097.03;;;27.88;44.92
26563;BME280;14217;50.986;5.826;2023-09-07T22:16:31;101097.03;;;27.88;44.64
26563;BME280;14217;50.986;5.826;2023-09-07T22:21:33;101095.19;;;27.89;45.06
26563;BME280;14217;50.986;5.826;2023-09-07T22:26:35;101091.66;;;27.88;44.84
26563;BME280;14217;50.986;5.826;2023-09-07T22:31:37;101096.19;;;27.88;45.04
26563;BME280;14217;50.986;5.826;2023-09-07T22:36:39;101091.88;;;27.85;45.13
26563;BME280;14217;50.986;5.826;2023-09-07T22:41:42;101093.50;;;27.88;45.00
26563;BME280;14217;50.986;5.826;2023-09-07T22:46:44;101095.94;;;27.91;44.96
26563;BME280;14217;50.986;5.826;2023-09-07T22:51:46;101093.22;;;27.91;44.85
26563;BME280;14217;50.986;5.826;2023-09-07T22:56:49;101087.38;;;27.86;44.97
26563;BME280;14217;50.986;5.826;2023-09-07T23:01:51;101085.41;;;27.88;45.08
26563;BME280;14217;50.986;5.826;2023-09-07T23:06:54;101081.88;;;27.87;44.95
26563;BME280;14217;50.986;5.826;2023-09-07T23:11:56;101076.59;;;27.86;44.95
26563;BME280;14217;50.986;5.826;2023-09-07T23:16:59;101080.03;;;27.88;45.09
26563;BME280;14217;50.986;5.826;2023-09-07T23:22:01;101078.16;;;28.00;44.63
26563;BME280;14217;50.986;5.826;2023-09-07T23:27:03;101077.56;;;27.96;44.81
26563;BME280;14217;50.986;5.826;2023-09-07T23:32:06;101078.69;;;27.93;44.90
26563;BME280;14217;50.986;5.826;2023-09-07T23:37:08;101079.38;;;27.95;44.59
26563;BME280;14217;50.986;5.826;2023-09-07T23:42:11;101067.78;;;27.95;44.86
26563;BME280;14217;50.986;5.826;2023-09-07T23:47:13;101074.88;;;27.96;44.83
26563;BME280;14217;50.986;5.826;2023-09-07T23:52:15;101068.03;;;27.92;44.98
26563;BME280;14217;50.986;5.826;2023-09-07T23:57:17;101062.16;;;27.98;44.74
